Time;durP1;ratioP1;P1;durP2;ratioP2;P2;SDS_P1;SDS_P2;PMS_P1;PMS_P2;Temp;Humidity;BMP_temperature;BMP_pressure;BME280_temperature;BME280_humidity;BME280_pressure;Samples;Min_cycle;Max_cycle;Signal;HPM_P1;HPM_P2
2023/05/24 00:02:07;;;;;;;8.38;6.07;;;;;;;16.62;nan;99674.66;5066712;28;20203;-81
2023/05/24 00:04:33;;;;;;;10.87;6.20;;;;;;;16.57;nan;99672.41;5068363;28;20510;-81
2023/05/24 00:07:02;;;;;;;10.20;5.40;;;;;;;16.52;nan;99678.13;5065406;28;20473;-81
2023/05/24 00:09:28;;;;;;;7.82;5.15;;;;;;;16.50;nan;99676.56;5065971;28;20466;-82
2023/05/24 00:11:54;;;;;;;6.85;5.22;;;;;;;16.52;nan;99683.41;5062900;28;20220;-81
2023/05/24 00:14:19;;;;;;;9.70;5.30;;;;;;;16.51;nan;99679.09;5064360;28;20207;-82
2023/05/24 00:16:45;;;;;;;7.00;4.73;;;;;;;16.48;nan;99683.84;5064889;28;20283;-82
2023/05/24 00:19:10;;;;;;;9.10;6.37;;;;;;;16.48;nan;99684.66;5067591;28;20213;-81
2023/05/24 00:21:36;;;;;;;7.03;5.73;;;;;;;16.50;nan;99677.44;5065332;28;20698;-82
2023/05/24 00:24:01;;;;;;;12.23;6.40;;;;;;;16.49;nan;99683.69;5069689;28;20276;-81
2023/05/24 00:26:26;;;;;;;7.90;5.20;;;;;;;16.49;nan;99682.84;5069224;28;20217;-82
2023/05/24 00:28:54;;;;;;;9.30;5.68;;;;;;;16.46;nan;99680.47;5054733;28;20222;-81
2023/05/24 00:31:20;;;;;;;6.57;5.40;;;;;;;16.42;nan;99681.69;5071377;28;20217;-82
2023/05/24 00:33:45;;;;;;;9.37;5.30;;;;;;;16.38;nan;99689.09;5069397;28;20854;-82
2023/05/24 00:36:11;;;;;;;7.40;5.40;;;;;;;16.35;nan;99686.69;5056569;28;20216;-82
2023/05/24 00:38:36;;;;;;;10.07;5.10;;;;;;;16.33;nan;99691.28;5069416;28;20321;-82
2023/05/24 00:41:01;;;;;;;6.73;6.03;;;;;;;16.30;nan;99688.91;5056729;28;20228;-81
2023/05/24 00:43:27;;;;;;;5.67;5.10;;;;;;;16.28;nan;99688.19;5065520;28;20311;-82
2023/05/24 00:46:13;;;;;;;6.90;4.70;;;;;;;16.26;nan;99684.84;5070948;28;20298;-81
2023/05/24 00:48:39;;;;;;;8.88;5.60;;;;;;;16.26;nan;99684.84;5055824;28;20252;-82
2023/05/24 00:51:05;;;;;;;8.80;6.03;;;;;;;16.20;nan;99675.59;5058723;28;20224;-81
2023/05/24 00:53:31;;;;;;;6.87;5.60;;;;;;;16.20;nan;99674.75;5071163;28;20270;-81
2023/05/24 00:55:58;;;;;;;8.55;5.68;;;;;;;16.19;nan;99671.28;5069591;28;20202;-82
2023/05/24 00:58:29;;;;;;;5.25;4.75;;;;;;;16.16;nan;99676.84;5058110;28;20230;-82
2023/05/24 01:00:58;;;;;;;5.95;4.63;;;;;;;16.13;nan;99675.28;5058274;28;20952;-82
2023/05/24 01:03:25;;;;;;;7.68;5.82;;;;;;;16.12;nan;99683.38;5058161;28;20209;-82
2023/05/24 01:05:51;;;;;;;7.07;5.80;;;;;;;16.08;nan;99680.16;5061528;28;20245;-82
2023/05/24 01:08:38;;;;;;;5.60;4.93;;;;;;;16.05;nan;99675.13;5051410;28;20219;-82
2023/05/24 01:11:27;;;;;;;6.75;4.70;;;;;;;16.03;nan;99668.25;5067796;28;20242;-82
2023/05/24 01:14:20;;;;;;;5.97;5.18;;;;;;;15.98;nan;99673.94;5049964;28;20206;-81
2023/05/24 01:16:57;;;;;;;10.93;5.50;;;;;;;15.99;nan;99667.69;5049003;28;20948;-81
2023/05/24 01:20:05;;;;;;;6.47;4.65;;;;;;;16.00;nan;99676.47;5065030;28;20211;-82
2023/05/24 01:22:49;;;;;;;4.85;4.15;;;;;;;16.01;nan;99675.50;5026986;28;20218;-82
2023/05/24 01:25:40;;;;;;;4.60;3.95;;;;;;;15.99;nan;99675.66;5064614;28;20222;-81
2023/05/24 01:28:10;;;;;;;6.57;5.03;;;;;;;15.95;nan;99679.50;5048289;28;20214;-81
2023/05/24 01:30:35;;;;;;;5.68;4.35;;;;;;;15.95;nan;99673.38;5047421;28;20198;-82
2023/05/24 01:33:02;;;;;;;7.50;5.60;;;;;;;15.99;nan;99677.47;5061503;28;20308;-81
2023/05/24 01:35:27;;;;;;;6.80;4.78;;;;;;;16.00;nan;99671.19;5046718;28;20867;-81
2023/05/24 01:37:53;;;;;;;8.20;4.37;;;;;;;15.99;nan;99673.00;5060030;28;20285;-81
2023/05/24 01:40:18;;;;;;;4.97;4.20;;;;;;;15.99;nan;99669.50;5057400;28;20212;-81
2023/05/24 01:42:54;;;;;;;5.90;5.23;;;;;;;15.97;nan;99663.50;5058200;28;20270;-81
2023/05/24 01:45:32;;;;;;;9.15;4.80;;;;;;;15.97;nan;99664.34;5056945;28;20208;-82
2023/05/24 01:48:23;;;;;;;6.20;5.03;;;;;;;15.93;nan;99666.41;5060921;28;20221;-82
2023/05/24 01:50:57;;;;;;;6.47;4.18;;;;;;;15.90;nan;99665.81;5070129;28;20205;-81
2023/05/24 01:53:25;;;;;;;9.73;5.07;;;;;;;15.87;nan;99664.25;5061186;28;20209;-81
2023/05/24 01:55:55;;;;;;;5.90;4.50;;;;;;;15.82;nan;99666.47;5069191;28;20207;-82
2023/05/24 01:58:22;;;;;;;5.97;4.90;;;;;;;15.80;nan;99663.13;5066920;28;20364;-81
2023/05/24 02:00:48;;;;;;;5.40;4.40;;;;;;;15.77;nan;99666.03;5044869;28;20271;-82
2023/05/24 02:03:17;;;;;;;7.28;5.28;;;;;;;15.73;nan;99656.66;5066664;28;20987;-81
2023/05/24 02:05:43;;;;;;;6.60;5.32;;;;;;;15.74;nan;99653.03;5043154;28;20192;-82
2023/05/24 02:08:11;;;;;;;5.00;3.95;;;;;;;15.75;nan;99657.38;5041847;28;20311;-81
2023/05/24 02:10:38;;;;;;;5.90;4.28;;;;;;;15.75;nan;99654.72;5040039;28;20207;-82
2023/05/24 02:13:04;;;;;;;6.30;4.45;;;;;;;15.76;nan;99658.22;5039612;28;20215;-82
2023/05/24 02:15:30;;;;;;;5.20;3.88;;;;;;;15.77;nan;99657.22;5067262;28;20214;-82
2023/05/24 02:17:56;;;;;;;8.90;4.70;;;;;;;15.76;nan;99650.25;5037944;28;20286;-81
2023/05/24 02:20:23;;;;;;;5.00;4.13;;;;;;;15.78;nan;99650.97;5040037;28;21208;-81
2023/05/24 02:22:48;;;;;;;5.78;4.47;;;;;;;15.79;nan;99650.84;5061680;28;20469;-81
2023/05/24 02:25:14;;;;;;;6.33;4.70;;;;;;;15.78;nan;99643.03;5033289;28;20203;-81
2023/05/24 02:27:40;;;;;;;7.90;4.10;;;;;;;15.76;nan;99644.97;5065850;28;20211;-81
2023/05/24 02:30:07;;;;;;;6.40;4.07;;;;;;;15.74;nan;99649.53;5064892;28;20223;-81
2023/05/24 02:32:33;;;;;;;5.60;4.50;;;;;;;15.70;nan;99647.16;5039045;28;20254;-80
2023/05/24 02:35:00;;;;;;;6.55;4.22;;;;;;;15.70;nan;99647.16;5061965;28;20287;-81
2023/05/24 02:37:26;;;;;;;6.78;4.93;;;;;;;15.67;nan;99647.38;5035815;28;20564;-80
2023/05/24 02:39:52;;;;;;;9.60;4.78;;;;;;;15.61;nan;99642.63;5042206;28;20269;-80
2023/05/24 02:42:17;;;;;;;5.30;4.43;;;;;;;15.52;nan;99640.72;5066084;28;20195;-80
2023/05/24 02:44:46;;;;;;;5.07;4.40;;;;;;;15.47;nan;99642.91;5065214;28;20213;-80
2023/05/24 02:47:12;;;;;;;8.88;4.50;;;;;;;15.37;nan;99645.50;5065786;28;20213;-80
2023/05/24 02:49:38;;;;;;;5.80;3.90;;;;;;;15.33;nan;99645.88;5065168;28;20339;-80
2023/05/24 02:52:04;;;;;;;5.07;4.27;;;;;;;15.25;nan;99641.22;5040936;28;20441;-80
2023/05/24 02:54:29;;;;;;;6.47;4.55;;;;;;;15.18;nan;99632.13;5063589;28;20556;-80
2023/05/24 02:56:56;;;;;;;10.52;4.80;;;;;;;15.13;nan;99637.78;5041252;28;20294;-80
2023/05/24 02:59:23;;;;;;;6.20;5.45;;;;;;;15.10;nan;99632.75;5061901;28;20233;-81
2023/05/24 03:01:48;;;;;;;7.43;3.67;;;;;;;15.08;nan;99641.78;5065451;28;20201;-80
2023/05/24 03:04:14;;;;;;;7.63;4.57;;;;;;;15.08;nan;99637.31;5048141;28;20207;-80
2023/05/24 03:06:40;;;;;;;8.50;4.30;;;;;;;15.08;nan;99632.03;5052966;28;20246;-81
2023/05/24 03:09:06;;;;;;;6.05;4.60;;;;;;;15.04;nan;99642.03;5052637;28;20455;-83
2023/05/24 03:11:33;;;;;;;4.63;4.00;;;;;;;15.01;nan;99636.13;5055534;28;20890;-80
2023/05/24 03:13:59;;;;;;;5.78;4.30;;;;;;;14.99;nan;99633.63;5055432;28;20204;-83
2023/05/24 03:16:24;;;;;;;4.60;3.60;;;;;;;15.01;nan;99646.72;5048710;28;20304;-81
2023/05/24 03:18:50;;;;;;;8.00;5.10;;;;;;;15.05;nan;99642.84;5049775;28;20211;-82
2023/05/24 03:21:19;;;;;;;6.73;4.27;;;;;;;15.07;nan;99646.22;5049344;28;20634;-84
2023/05/24 03:23:44;;;;;;;5.93;4.05;;;;;;;15.08;nan;99649.72;5049623;28;20523;-82
2023/05/24 03:26:11;;;;;;;8.53;5.57;;;;;;;15.11;nan;99644.16;5050019;28;20226;-80
2023/05/24 03:28:37;;;;;;;6.20;3.88;;;;;;;15.13;nan;99652.81;5048080;28;20329;-81
2023/05/24 03:31:03;;;;;;;6.13;4.00;;;;;;;15.11;nan;99642.34;5051104;28;20222;-81
2023/05/24 03:33:28;;;;;;;5.20;3.90;;;;;;;15.08;nan;99652.34;5063789;28;20461;-82
2023/05/24 03:35:54;;;;;;;9.88;4.50;;;;;;;15.07;nan;99648.88;5048952;28;20256;-82
2023/05/24 03:38:20;;;;;;;5.50;4.43;;;;;;;15.07;nan;99656.81;5049939;28;20230;-82
2023/05/24 03:40:46;;;;;;;4.50;3.80;;;;;;;15.04;nan;99660.53;5048374;28;20373;-82
2023/05/24 03:43:16;;;;;;;7.30;4.38;;;;;;;15.00;nan;99669.69;5049826;28;20225;-80
2023/05/24 03:45:46;;;;;;;8.35;4.40;;;;;;;15.00;nan;99660.91;5049914;28;20231;-81
2023/05/24 03:48:12;;;;;;;7.50;3.97;;;;;;;15.00;nan;99666.19;5064329;28;21083;-80
2023/05/24 03:50:37;;;;;;;6.90;4.83;;;;;;;15.01;nan;99670.50;5068021;28;20494;-80
2023/05/24 03:53:03;;;;;;;5.13;4.57;;;;;;;15.00;nan;99666.19;5065675;28;20806;-83
2023/05/24 03:55:29;;;;;;;6.03;3.83;;;;;;;15.00;nan;99668.84;5051446;28;20264;-81
2023/05/24 03:57:55;;;;;;;5.15;3.78;;;;;;;14.98;nan;99665.47;5067416;28;20483;-80
2023/05/24 04:00:21;;;;;;;3.97;3.57;;;;;;;14.93;nan;99667.66;5053205;28;20243;-82
2023/05/24 04:02:47;;;;;;;5.18;4.10;;;;;;;14.93;nan;99672.94;5053557;28;20436;-81
2023/05/24 04:05:12;;;;;;;7.17;4.50;;;;;;;14.92;nan;99671.28;5070775;28;20204;-81
2023/05/24 04:07:39;;;;;;;7.40;4.60;;;;;;;14.93;nan;99672.94;5054913;28;20772;-82
2023/05/24 04:10:05;;;;;;;4.97;4.40;;;;;;;14.91;nan;99678.38;5055403;28;20209;-83
2023/05/24 04:12:31;;;;;;;9.23;4.22;;;;;;;14.91;nan;99677.53;5070785;28;20213;-80
2023/05/24 04:14:58;;;;;;;6.25;4.50;;;;;;;14.93;nan;99680.88;5053560;28;20417;-82
2023/05/24 04:17:24;;;;;;;8.25;4.22;;;;;;;14.92;nan;99680.03;5055115;28;20204;-81
2023/05/24 04:19:52;;;;;;;8.70;4.77;;;;;;;14.91;nan;99685.47;5054990;28;20231;-83
2023/05/24 04:22:18;;;;;;;4.18;3.33;;;;;;;14.89;nan;99690.03;5070152;28;20206;-84
2023/05/24 04:24:44;;;;;;;9.07;4.73;;;;;;;14.86;nan;99690.28;5070724;28;20211;-80
2023/05/24 04:27:10;;;;;;;7.35;3.50;;;;;;;14.85;nan;99686.78;5055810;28;20206;-81
2023/05/24 04:29:35;;;;;;;9.20;4.40;;;;;;;14.83;nan;99689.56;5072049;28;20217;-83
2023/05/24 04:32:01;;;;;;;6.57;4.17;;;;;;;14.83;nan;99681.63;5054082;28;20226;-82
2023/05/24 04:34:32;;;;;;;4.13;3.47;;;;;;;14.83;nan;99678.16;5068944;28;20188;-82
2023/05/24 04:37:01;;;;;;;4.93;4.07;;;;;;;14.82;nan;99677.31;5056154;28;20238;-80
2023/05/24 04:39:29;;;;;;;5.38;4.47;;;;;;;14.81;nan;99672.97;5057078;28;20209;-82
2023/05/24 04:41:56;;;;;;;5.32;3.80;;;;;;;14.80;nan;99673.09;5072664;28;20853;-82
2023/05/24 04:44:23;;;;;;;4.93;3.75;;;;;;;14.76;nan;99680.41;5071893;28;20212;-82
2023/05/24 04:46:48;;;;;;;8.32;5.82;;;;;;;14.74;nan;99669.16;5073315;28;20216;-83
2023/05/24 04:49:14;;;;;;;5.03;3.73;;;;;;;14.76;nan;99664.56;5073419;28;20220;-81
2023/05/24 04:51:39;;;;;;;7.33;4.17;;;;;;;14.77;nan;99662.75;5074977;28;20952;-82
2023/05/24 04:54:07;;;;;;;9.10;4.47;;;;;;;14.80;nan;99668.66;5075745;28;20206;-85
2023/05/24 04:56:37;;;;;;;5.05;4.45;;;;;;;14.83;nan;99659.63;5073075;28;20228;-82
2023/05/24 04:59:09;;;;;;;8.15;7.47;;;;;;;14.89;nan;99667.06;5074117;28;20216;-84
2023/05/24 05:01:34;;;;;;;7.53;5.00;;;;;;;14.95;nan;99673.66;5073313;28;20222;-84
2023/05/24 05:04:03;;;;;;;5.70;4.57;;;;;;;14.99;nan;99659.25;5057751;28;20209;-82
2023/05/24 05:06:28;;;;;;;7.45;4.38;;;;;;;15.07;nan;99664.75;5070761;28;20498;-83
2023/05/24 05:08:54;;;;;;;6.90;4.17;;;;;;;15.08;nan;99666.41;5071785;28;20244;-84
2023/05/24 05:11:19;;;;;;;4.17;3.20;;;;;;;15.11;nan;99671.44;5073070;28;20213;-84
2023/05/24 05:13:45;;;;;;;8.43;5.90;;;;;;;15.22;nan;99674.06;5068374;28;20305;-82
2023/05/24 05:16:10;;;;;;;10.57;5.07;;;;;;;15.36;nan;99680.03;5073333;28;20698;-82
2023/05/24 05:18:36;;;;;;;5.87;3.47;;;;;;;15.46;nan;99692.38;5071212;28;20237;-83
2023/05/24 05:21:02;;;;;;;9.43;4.17;;;;;;;15.53;nan;99687.44;5067464;28;20223;-84
2023/05/24 05:23:28;;;;;;;6.43;4.20;;;;;;;15.53;nan;99690.06;5067608;28;20210;-82
2023/05/24 05:25:53;;;;;;;5.22;4.05;;;;;;;15.46;nan;99687.06;5068557;28;21200;-82
2023/05/24 05:28:19;;;;;;;7.77;4.50;;;;;;;15.44;nan;99682.88;5067463;28;20213;-83
2023/05/24 05:30:44;;;;;;;4.90;4.10;;;;;;;15.47;nan;99686.13;5064123;28;20210;-82
2023/05/24 05:33:10;;;;;;;8.70;4.83;;;;;;;15.51;nan;99689.34;5067207;28;20241;-82
2023/05/24 05:35:35;;;;;;;7.75;4.90;;;;;;;15.56;nan;99681.88;5080564;28;20413;-84
2023/05/24 05:38:00;;;;;;;9.27;6.43;;;;;;;15.65;nan;99683.75;5092625;28;20800;-84
2023/05/24 05:40:28;;;;;;;11.93;5.73;;;;;;;15.70;nan;99683.41;5085563;28;20277;-82
2023/05/24 05:42:54;;;;;;;9.32;4.40;;;;;;;15.72;nan;99678.81;5080442;28;20202;-83
2023/05/24 05:45:19;;;;;;;6.23;4.07;;;;;;;15.72;nan;99681.47;5080831;28;20215;-84
2023/05/24 05:47:45;;;;;;;8.93;4.93;;;;;;;15.76;nan;99680.22;5078695;28;20209;-83
2023/05/24 05:50:10;;;;;;;7.70;4.43;;;;;;;15.88;nan;99686.31;5074678;28;20201;-83
2023/05/24 05:52:35;;;;;;;15.83;5.50;;;;;;;15.95;nan;99692.75;5072314;28;20235;-84
2023/05/24 05:55:01;;;;;;;8.13;4.53;;;;;;;15.94;nan;99691.09;5072574;28;20238;-82
2023/05/24 05:57:26;;;;;;;7.83;4.50;;;;;;;15.87;nan;99692.56;5070506;28;20504;-83
2023/05/24 05:59:52;;;;;;;5.67;3.43;;;;;;;15.79;nan;99685.25;5070918;28;20257;-85
2023/05/24 06:02:17;;;;;;;6.07;3.30;;;;;;;15.74;nan;99690.09;5072343;28;20220;-82
2023/05/24 06:04:44;;;;;;;7.17;4.57;;;;;;;15.72;nan;99692.06;5073487;28;20209;-82
2023/05/24 06:07:09;;;;;;;8.85;4.72;;;;;;;15.70;nan;99697.47;5072276;28;20315;-84
2023/05/24 06:09:35;;;;;;;11.47;4.00;;;;;;;15.67;nan;99689.75;5073259;28;20209;-85
2023/05/24 06:12:00;;;;;;;11.83;5.37;;;;;;;15.72;nan;99691.22;5073062;28;20299;-83
2023/05/24 06:14:26;;;;;;;10.17;4.70;;;;;;;15.76;nan;99692.63;5073422;28;20205;-84
2023/05/24 06:16:53;;;;;;;7.53;4.57;;;;;;;15.81;nan;99701.88;5059591;28;20227;-83
2023/05/24 06:19:19;;;;;;;7.80;5.82;;;;;;;15.79;nan;99697.66;5073516;28;20282;-83
2023/05/24 06:21:46;;;;;;;6.82;4.50;;;;;;;15.72;nan;99707.94;5073745;28;20205;-83
2023/05/24 06:24:13;;;;;;;11.57;4.25;;;;;;;15.67;nan;99705.66;5072926;28;20213;-82
2023/05/24 06:26:40;;;;;;;9.30;5.30;;;;;;;15.57;nan;99702.06;5056162;28;20229;-82
2023/05/24 06:29:07;;;;;;;6.78;3.75;;;;;;;15.49;nan;99709.81;5068396;28;20240;-85
2023/05/24 06:31:33;;;;;;;4.90;4.13;;;;;;;15.47;nan;99704.66;5057724;28;20658;-83
2023/05/24 06:33:59;;;;;;;5.45;4.32;;;;;;;15.49;nan;99715.09;5069325;28;20212;-85
2023/05/24 06:36:25;;;;;;;13.33;4.23;;;;;;;15.50;nan;99703.56;5071482;28;20239;-82
2023/05/24 06:38:50;;;;;;;9.23;4.30;;;;;;;15.57;nan;99715.31;5071051;28;20210;-84
2023/05/24 06:41:16;;;;;;;5.87;3.77;;;;;;;15.58;nan;99711.72;5083744;28;20220;-84
2023/05/24 06:43:41;;;;;;;7.63;4.23;;;;;;;15.60;nan;99715.06;5066457;28;20215;-74
2023/05/24 06:46:06;;;;;;;5.70;3.50;;;;;;;15.64;nan;99719.16;5069294;28;20299;-84
2023/05/24 06:48:32;;;;;;;6.57;4.30;;;;;;;15.68;nan;99717.06;5080965;28;20213;-82
2023/05/24 06:50:57;;;;;;;12.40;4.67;;;;;;;15.79;nan;99727.63;5079159;28;20288;-83
2023/05/24 06:53:23;;;;;;;6.10;3.97;;;;;;;15.88;nan;99726.06;5077845;28;20292;-82
2023/05/24 06:55:48;;;;;;;6.40;4.13;;;;;;;15.93;nan;99737.06;5075936;28;20643;-82
2023/05/24 06:58:13;;;;;;;5.83;3.73;;;;;;;15.95;nan;99732.50;5076612;28;20212;-84
2023/05/24 07:00:41;;;;;;;6.40;4.13;;;;;;;15.98;nan;99731.41;5064404;28;21266;-82
2023/05/24 07:03:07;;;;;;;5.75;4.35;;;;;;;16.04;nan;99737.03;5078218;28;20223;-85
2023/05/24 07:05:33;;;;;;;7.05;5.03;;;;;;;16.08;nan;99745.56;5076985;28;20428;-83
2023/05/24 07:07:59;;;;;;;5.50;4.40;;;;;;;16.06;nan;99743.03;5078560;28;20246;-83
2023/05/24 07:10:24;;;;;;;11.80;6.50;;;;;;;16.04;nan;99745.00;5075258;28;20453;-83
2023/05/24 07:12:50;;;;;;;6.20;4.47;;;;;;;15.97;nan;99738.50;5053666;28;20237;-84
2023/05/24 07:15:15;;;;;;;5.70;4.00;;;;;;;15.89;nan;99746.25;5073843;28;20278;-82
2023/05/24 07:17:40;;;;;;;5.53;4.10;;;;;;;15.83;nan;99752.91;5073203;28;20237;-83
2023/05/24 07:20:09;;;;;;;7.60;4.50;;;;;;;15.79;nan;99750.63;5074704;28;20218;-85
2023/05/24 07:22:35;;;;;;;6.93;6.03;;;;;;;15.78;nan;99755.09;5073711;28;20225;-84
2023/05/24 07:25:00;;;;;;;5.57;5.00;;;;;;;15.79;nan;99750.63;5075216;28;20210;-83
2023/05/24 07:27:26;;;;;;;9.73;4.03;;;;;;;15.77;nan;99755.22;5061105;28;20220;-83
2023/05/24 07:29:51;;;;;;;6.90;3.43;;;;;;;15.79;nan;99755.94;5074388;28;20317;-85
2023/05/24 07:32:17;;;;;;;7.87;4.30;;;;;;;15.80;nan;99755.00;5072305;28;20736;-86
2023/05/24 07:34:42;;;;;;;6.00;3.80;;;;;;;15.72;nan;99760.91;5074696;28;20202;-82
2023/05/24 07:37:08;;;;;;;8.57;4.30;;;;;;;15.66;nan;99764.00;5075216;28;20213;-83
2023/05/24 07:39:33;;;;;;;6.00;3.83;;;;;;;15.64;nan;99752.72;5072199;28;20310;-83
2023/05/24 07:41:58;;;;;;;7.50;3.90;;;;;;;15.66;nan;99761.38;5076301;28;20688;-82
2023/05/24 07:44:24;;;;;;;8.73;4.60;;;;;;;15.75;nan;99763.31;5058645;28;20205;-84
2023/05/24 07:46:50;;;;;;;15.67;3.83;;;;;;;15.78;nan;99764.88;5077169;28;20216;-84
2023/05/24 07:49:15;;;;;;;4.90;4.40;;;;;;;15.72;nan;99757.44;5075680;28;20262;-84
2023/05/24 07:51:41;;;;;;;7.00;3.93;;;;;;;15.67;nan;99763.91;5072162;28;20207;-83
2023/05/24 07:54:06;;;;;;;11.33;4.20;;;;;;;15.66;nan;99771.97;5071782;28;20222;-84
2023/05/24 07:56:32;;;;;;;8.10;4.53;;;;;;;15.70;nan;99763.69;5073495;28;20286;-84
2023/05/24 07:59:03;;;;;;;8.93;4.13;;;;;;;15.74;nan;99766.91;5072706;28;20225;-83
2023/05/24 08:01:37;;;;;;;8.43;4.30;;;;;;;15.88;nan;99768.44;5071275;28;20218;-83
2023/05/24 08:04:03;;;;;;;19.45;4.18;;;;;;;16.01;nan;99761.13;5057671;28;20214;-85
2023/05/24 08:06:30;;;;;;;4.13;3.40;;;;;;;16.07;nan;99765.09;5072884;28;20357;-83
2023/05/24 08:08:56;;;;;;;11.18;5.70;;;;;;;16.12;nan;99762.88;5069881;28;20397;-83
2023/05/24 08:11:21;;;;;;;10.03;5.00;;;;;;;16.16;nan;99769.59;5071356;28;20186;-84
2023/05/24 08:13:47;;;;;;;15.70;4.43;;;;;;;16.22;nan;99769.06;5070757;28;20221;-83
2023/05/24 08:16:12;;;;;;;6.10;4.90;;;;;;;16.30;nan;99765.78;5069408;28;20217;-83
2023/05/24 08:18:37;;;;;;;7.93;4.80;;;;;;;16.35;nan;99763.59;5072538;28;20214;-83
2023/05/24 08:21:03;;;;;;;7.90;4.00;;;;;;;16.42;nan;99763.88;5073675;28;20273;-84
2023/05/24 08:23:29;;;;;;;10.20;3.30;;;;;;;16.46;nan;99767.97;5069748;28;20558;-83
2023/05/24 08:25:56;;;;;;;9.67;4.20;;;;;;;16.50;nan;99766.72;5071076;28;20235;-83
2023/05/24 08:28:22;;;;;;;5.05;3.30;;;;;;;16.47;nan;99772.28;5071461;28;20462;-83
2023/05/24 08:30:47;;;;;;;7.13;4.43;;;;;;;16.47;nan;99773.16;5069632;28;20852;-84
2023/05/24 08:33:13;;;;;;;5.60;3.60;;;;;;;16.50;nan;99772.03;5071443;28;20208;-84
2023/05/24 08:35:38;;;;;;;9.93;5.70;;;;;;;16.51;nan;99781.69;5069951;28;20714;-85
2023/05/24 08:38:04;;;;;;;11.70;4.93;;;;;;;16.53;nan;99775.28;5070320;28;20479;-84
2023/05/24 08:40:29;;;;;;;8.23;4.10;;;;;;;16.53;nan;99772.63;5068925;28;20234;-84
2023/05/24 08:43:00;;;;;;;7.70;4.50;;;;;;;16.57;nan;99776.66;5072298;28;20211;-83
2023/05/24 08:45:29;;;;;;;11.90;4.05;;;;;;;16.54;nan;99771.63;5074840;28;20213;-84
2023/05/24 08:47:56;;;;;;;4.35;3.35;;;;;;;16.50;nan;99772.03;5071717;28;20229;-83
2023/05/24 08:50:21;;;;;;;5.43;4.03;;;;;;;16.49;nan;99771.19;5075799;28;20750;-84
2023/05/24 08:52:48;;;;;;;6.47;4.70;;;;;;;16.58;nan;99781.03;5074677;28;20228;-83
2023/05/24 08:55:13;;;;;;;7.15;5.28;;;;;;;16.65;nan;99783.13;5071954;28;20296;-84
2023/05/24 08:57:40;;;;;;;9.77;4.40;;;;;;;16.65;nan;99777.84;5073145;28;20256;-82
2023/05/24 09:00:10;;;;;;;4.25;3.30;;;;;;;16.56;nan;99777.66;5075062;28;20213;-84
2023/05/24 09:02:38;;;;;;;8.98;4.60;;;;;;;16.51;nan;99779.84;5075090;28;21222;-85
2023/05/24 09:05:04;;;;;;;4.07;3.30;;;;;;;16.43;nan;99786.78;5084989;28;20249;-83
2023/05/24 09:07:30;;;;;;;5.90;4.40;;;;;;;16.40;nan;99776.44;5083576;28;20234;-84
2023/05/24 09:12:54;;;;;;;8.98;4.38;;;;;;;16.34;nan;99783.94;4991040;28;20548;-83
2023/05/24 09:15:19;;;;;;;5.32;4.40;;;;;;;16.33;nan;99790.22;5004360;28;20212;-86
2023/05/24 09:17:46;;;;;;;12.00;5.83;;;;;;;16.27;nan;99782.78;5011357;28;20224;-84
2023/05/24 09:20:12;;;;;;;8.98;4.07;;;;;;;16.29;nan;99783.50;5013361;28;20573;-84
2023/05/24 09:22:41;;;;;;;6.88;3.67;;;;;;;16.31;nan;99788.66;5031528;28;20223;-84
2023/05/24 09:25:08;;;;;;;6.50;3.92;;;;;;;16.33;nan;99792.03;5012611;28;20208;-87
2023/05/24 09:27:35;;;;;;;6.63;4.40;;;;;;;16.37;nan;99794.28;5028736;28;20694;-87
2023/05/24 09:30:03;;;;;;;6.13;4.30;;;;;;;16.47;nan;99789.06;5028471;28;20262;-83
2023/05/24 09:32:30;;;;;;;6.35;4.32;;;;;;;16.48;nan;99797.84;5029258;28;20198;-84
2023/05/24 09:34:57;;;;;;;7.57;4.50;;;;;;;16.48;nan;99784.59;5027503;28;20199;-84
2023/05/24 09:37:26;;;;;;;6.07;4.22;;;;;;;16.48;nan;99790.72;5029127;28;20281;-83
2023/05/24 09:39:52;;;;;;;6.22;5.43;;;;;;;16.51;nan;99789.63;5027807;28;20703;-86
2023/05/24 09:42:27;;;;;;;5.18;4.03;;;;;;;16.52;nan;99786.81;5028154;28;20215;-83
2023/05/24 09:45:09;;;;;;;6.18;5.15;;;;;;;16.62;nan;99797.50;5027991;28;20726;-85
2023/05/24 09:47:43;;;;;;;18.08;5.45;;;;;;;16.66;nan;99798.06;5014832;28;20243;-86
2023/05/24 09:50:14;;;;;;;6.57;5.03;;;;;;;16.74;nan;99800.91;5012554;28;20208;-86
2023/05/24 09:52:40;;;;;;;7.32;3.90;;;;;;;16.77;nan;99800.69;5030124;28;20237;-85
2023/05/24 09:55:14;;;;;;;15.85;5.20;;;;;;;16.84;nan;99807.13;5029653;28;20296;-86
2023/05/24 09:57:40;;;;;;;9.30;4.60;;;;;;;16.89;nan;99801.44;5027718;28;20725;-85
2023/05/24 10:00:16;;;;;;;7.53;4.50;;;;;;;16.95;nan;99807.03;5026886;28;20218;-86
2023/05/24 10:02:43;;;;;;;9.85;4.35;;;;;;;17.11;nan;99803.88;5025708;28;21108;-84
2023/05/24 10:05:10;;;;;;;7.65;5.30;;;;;;;17.32;nan;99806.47;5024119;28;20437;-85
2023/05/24 10:07:37;;;;;;;5.30;3.42;;;;;;;17.46;nan;99803.41;5028780;28;20201;-85
2023/05/24 10:10:06;;;;;;;10.63;4.25;;;;;;;17.54;nan;99809.88;5029702;28;20824;-83
2023/05/24 10:12:33;;;;;;;5.88;3.85;;;;;;;17.58;nan;99804.16;5029440;28;20235;-84
2023/05/24 10:14:59;;;;;;;5.60;3.85;;;;;;;17.66;nan;99814.91;5029533;28;20290;-85
2023/05/24 10:17:27;;;;;;;6.07;3.80;;;;;;;17.64;nan;99806.25;5028019;28;20233;-85
2023/05/24 10:19:53;;;;;;;5.75;3.97;;;;;;;17.62;nan;99805.53;5026880;28;20501;-84
2023/05/24 10:22:21;;;;;;;12.83;5.50;;;;;;;17.67;nan;99805.13;5025698;28;20640;-86
2023/05/24 10:24:50;;;;;;;11.02;4.50;;;;;;;17.75;nan;99807.09;5025701;28;20327;-83
2023/05/24 10:27:23;;;;;;;7.82;4.10;;;;;;;17.87;nan;99806.00;5025720;28;20229;-84
2023/05/24 10:30:13;;;;;;;5.53;4.25;;;;;;;17.99;nan;99804.91;5027259;28;20207;-88
2023/05/24 10:32:43;;;;;;;6.78;5.30;;;;;;;18.03;nan;99803.63;5023842;28;20816;-88
2023/05/24 10:35:13;;;;;;;7.83;4.30;;;;;;;18.03;nan;99802.78;5024837;28;20381;-87
2023/05/24 10:37:40;;;;;;;9.50;4.93;;;;;;;18.13;nan;99804.47;5028422;28;20937;-88
2023/05/24 10:40:08;;;;;;;7.50;4.50;;;;;;;18.14;nan;99797.31;5024098;28;20508;-83
2023/05/24 10:42:35;;;;;;;12.20;3.97;;;;;;;18.09;nan;99794.25;5018134;28;20509;-82
2023/05/24 10:45:34;;;;;;;8.77;4.10;;;;;;;18.11;nan;99787.81;5013649;28;20479;-84
2023/05/24 10:48:12;;;;;;;11.13;5.07;;;;;;;18.24;nan;99798.16;5015701;28;20227;-85
2023/05/24 10:50:39;;;;;;;5.77;4.70;;;;;;;18.29;nan;99787.09;5013949;28;20477;-84
2023/05/24 10:53:13;;;;;;;5.87;5.23;;;;;;;18.40;nan;99791.41;5018121;28;20457;-82
2023/05/24 10:55:56;;;;;;;11.40;5.23;;;;;;;18.45;nan;99795.31;5015481;28;21029;-83
2023/05/24 10:58:46;;;;;;;10.63;5.07;;;;;;;18.57;nan;99790.66;5015118;28;20459;-84
2023/05/24 11:01:32;;;;;;;7.37;4.40;;;;;;;18.66;nan;99797.78;5005219;28;20490;-84
2023/05/24 11:04:11;;;;;;;15.33;4.40;;;;;;;18.74;nan;99800.59;5016112;28;20520;-84
2023/05/24 11:06:57;;;;;;;9.00;5.70;;;;;;;18.79;nan;99803.66;5009688;28;20451;-83
2023/05/24 11:09:27;;;;;;;7.70;5.10;;;;;;;18.81;nan;99795.50;5013985;28;20243;-83
2023/05/24 11:12:16;;;;;;;6.27;4.73;;;;;;;18.79;nan;99797.47;5016039;28;20482;-84
2023/05/24 11:15:02;;;;;;;8.40;4.40;;;;;;;18.79;nan;99798.34;5007650;28;20484;-81
2023/05/24 11:17:28;;;;;;;7.80;4.87;;;;;;;18.85;nan;99798.72;5015507;28;20475;-85
2023/05/24 11:19:54;;;;;;;10.20;4.60;;;;;;;18.91;nan;99796.31;5014103;28;20491;-85
2023/05/24 11:22:21;;;;;;;6.93;4.80;;;;;;;18.87;nan;99794.09;5012689;28;20225;-82
2023/05/24 11:24:47;;;;;;;8.67;4.90;;;;;;;18.90;nan;99799.13;5015025;28;20910;-82
2023/05/24 11:27:13;;;;;;;8.27;5.07;;;;;;;18.91;nan;99792.81;5018400;28;20493;-85
2023/05/24 11:29:43;;;;;;;7.47;4.30;;;;;;;18.88;nan;99799.28;5014466;28;20473;-84
2023/05/24 11:32:13;;;;;;;9.40;4.80;;;;;;;18.89;nan;99792.13;5014550;28;20478;-83
2023/05/24 11:34:38;;;;;;;6.50;5.10;;;;;;;18.99;nan;99788.44;5014159;28;20440;-84
2023/05/24 11:37:04;;;;;;;7.60;4.37;;;;;;;19.11;nan;99785.56;5016996;28;20464;-82
2023/05/24 11:39:31;;;;;;;6.77;4.80;;;;;;;19.27;nan;99782.28;5013093;28;20500;-85
2023/05/24 11:41:58;;;;;;;4.83;3.90;;;;;;;19.44;nan;99770.78;5012955;28;20213;-84
2023/05/24 11:44:24;;;;;;;5.23;4.50;;;;;;;19.64;nan;99769.69;5014443;28;20471;-83
2023/05/24 11:46:59;;;;;;;7.20;4.67;;;;;;;19.83;nan;99771.38;5013974;28;20462;-82
2023/05/24 11:49:25;;;;;;;6.20;4.70;;;;;;;19.93;nan;99767.78;5014504;28;20443;-86
2023/05/24 11:51:53;;;;;;;6.50;4.10;;;;;;;20.01;nan;99759.84;5013047;28;20462;-84
2023/05/24 11:54:20;;;;;;;9.43;4.47;;;;;;;20.13;nan;99760.47;5016543;28;20458;-83
2023/05/24 11:56:46;;;;;;;6.63;5.13;;;;;;;20.14;nan;99754.13;5012963;28;20462;-85